Información del aeropuerto SCVD

Información de pista
Pista 17 Longitud 6870 ft Anchura 148 ft
Elevación 59 ft Umbral 0 ft Rumbo 178
Pista 35 Longitud 6870 ft Anchura 148 ft
Elevación 54 ft Umbral 0 ft Rumbo 358
Frecuencias del aeropuerto
Tipo INFO Nombre AFIS Frecuencia 127.7 MHZ
Radioayudas del aeropuerto
Tipo VOR-DME Nombre Valdivia Frecuencia 114500 KHZ
Tipo NDB Nombre Valdivia Frecuencia 208 KHZ
Información meteorológica del aeropuerto y NOTAM
ADDS - METARS form results

(0132 UTC 20 September 2020)
Data provider http://aviationweather.gov/metar/data/
 
METAR text: SCVD 200100Z VRB03KT CAVOK 10/05 Q1025
Conditions at: SCVD (VALDIVIA/PICHOY , CL) observed 0100 UTC 20 September 2020
Temperature: 10.0°C (50°F)
Dewpoint: 5.0°C (41°F) [RH = 71%]
Pressure (altimeter): 30.27 inches Hg (1025.0 mb)
Winds: variable direction winds at 3 MPH (3 knots; 1.5 m/s)
Visibility: 6 or more miles (10+ km)
Ceiling: ceiling and visibility are OK
Clouds: unknown
Weather: no significant weather observed at this time